Time;durP1;ratioP1;P1;durP2;ratioP2;P2;SDS_P1;SDS_P2;PMS_P1;PMS_P2;Temp;Humidity;BMP_temperature;BMP_pressure;BME280_temperature;BME280_humidity;BME280_pressure;Samples;Min_cycle;Max_cycle;Signal;HPM_P1;HPM_P2
2023/06/10 00:00:41;;;;;;;7.80;2.67;;;16.60;99.90;;;;;;5096769;28;20313;-88
2023/06/10 00:03:08;;;;;;;5.85;2.95;;;16.70;99.90;;;;;;5096181;28;20181;-88
2023/06/10 00:05:35;;;;;;;10.15;3.00;;;16.60;99.90;;;;;;5096270;28;20259;-89
2023/06/10 00:08:07;;;;;;;11.65;3.40;;;16.60;99.90;;;;;;5096267;28;20176;-86
2023/06/10 00:10:35;;;;;;;8.40;3.65;;;16.50;99.90;;;;;;5095632;28;20275;-88
2023/06/10 00:13:02;;;;;;;8.18;3.17;;;16.50;99.90;;;;;;5096053;28;20184;-89
2023/06/10 00:15:28;;;;;;;9.10;3.17;;;16.40;99.90;;;;;;5095994;28;20177;-88
2023/06/10 00:17:54;;;;;;;7.22;3.47;;;16.50;99.90;;;;;;5096962;28;20236;-89
2023/06/10 00:20:24;;;;;;;10.38;3.17;;;16.30;99.90;;;;;;5096225;28;20176;-89
2023/06/10 00:22:51;;;;;;;6.72;3.40;;;16.30;99.90;;;;;;5095702;28;20184;-89
2023/06/10 00:27:52;;;;;;;9.20;3.15;;;16.10;99.90;;;;;;5087048;22;20249;-86
2023/06/10 00:30:17;;;;;;;8.30;3.40;;;16.00;99.90;;;;;;5055235;28;20267;-85
2023/06/10 00:32:43;;;;;;;12.25;3.42;;;16.00;99.90;;;;;;5055404;28;20253;-86
2023/06/10 00:35:09;;;;;;;11.85;3.45;;;16.00;99.90;;;;;;5054352;28;20569;-87
2023/06/10 00:37:35;;;;;;;7.50;3.38;;;16.00;99.90;;;;;;5054196;28;20261;-86
2023/06/10 00:40:05;;;;;;;5.97;3.15;;;16.00;99.90;;;;;;5054175;28;20592;-86
2023/06/10 00:42:32;;;;;;;7.55;3.47;;;15.90;99.90;;;;;;5053837;28;20247;-85
2023/06/10 00:44:57;;;;;;;9.27;3.53;;;16.00;99.90;;;;;;5055472;28;20166;-86
2023/06/10 00:47:24;;;;;;;9.75;3.50;;;15.90;99.90;;;;;;5054041;28;20174;-86
2023/06/10 00:49:50;;;;;;;8.27;3.72;;;15.80;99.90;;;;;;5053854;28;20213;-87
2023/06/10 00:52:19;;;;;;;10.18;4.07;;;15.80;99.90;;;;;;5055024;28;20181;-85
2023/06/10 00:54:45;;;;;;;11.85;4.65;;;15.80;99.90;;;;;;5053729;28;20616;-86
2023/06/10 00:57:13;;;;;;;8.98;3.67;;;15.80;99.90;;;;;;5054365;28;20186;-86
2023/06/10 00:59:41;;;;;;;10.85;3.67;;;15.70;99.90;;;;;;5053813;28;20268;-85
2023/06/10 01:02:07;;;;;;;11.00;3.28;;;15.70;99.90;;;;;;5054966;28;20621;-86
2023/06/10 01:04:33;;;;;;;7.88;3.55;;;15.80;99.90;;;;;;5053644;28;20216;-87
2023/06/10 01:07:04;;;;;;;5.25;2.92;;;15.70;99.90;;;;;;5053496;28;20201;-85
2023/06/10 01:09:42;;;;;;;7.15;3.60;;;15.70;99.90;;;;;;5070084;28;20208;-86
2023/06/10 01:12:21;;;;;;;6.63;3.55;;;15.70;99.90;;;;;;5054563;28;20162;-86
2023/06/10 01:14:48;;;;;;;11.95;4.05;;;15.60;99.90;;;;;;5053410;28;20176;-85
2023/06/10 01:17:16;;;;;;;8.43;4.15;;;15.60;99.90;;;;;;5053280;28;20205;-85
2023/06/10 01:19:43;;;;;;;10.18;3.67;;;15.60;99.90;;;;;;5053399;28;20178;-85
2023/06/10 01:22:10;;;;;;;6.75;3.30;;;15.50;99.90;;;;;;5054640;28;20169;-85
2023/06/10 01:24:40;;;;;;;7.90;3.53;;;15.40;99.90;;;;;;5054497;28;20173;-87
2023/06/10 01:27:12;;;;;;;6.68;3.90;;;15.40;99.90;;;;;;5052036;28;20225;-86
2023/06/10 01:29:46;;;;;;;9.20;3.67;;;15.30;99.90;;;;;;5052901;28;20213;-86
2023/06/10 01:32:26;;;;;;;6.97;3.60;;;15.30;99.90;;;;;;5053215;28;20182;-86
2023/06/10 01:34:54;;;;;;;5.70;3.72;;;15.30;99.90;;;;;;5069735;28;20197;-85
2023/06/10 01:37:24;;;;;;;8.38;3.40;;;15.30;99.90;;;;;;5052991;28;20223;-86
2023/06/10 01:39:51;;;;;;;8.77;3.75;;;15.30;99.90;;;;;;5069085;28;20174;-85
2023/06/10 01:42:17;;;;;;;9.38;3.90;;;15.20;99.90;;;;;;5053774;28;20174;-85
2023/06/10 01:44:43;;;;;;;14.25;4.03;;;15.10;99.90;;;;;;5053687;28;20181;-86
2023/06/10 01:47:09;;;;;;;8.38;3.53;;;15.10;99.90;;;;;;5054212;28;20491;-86
2023/06/10 01:49:34;;;;;;;11.02;3.88;;;15.10;99.90;;;;;;5052693;28;20255;-86
2023/06/10 01:52:00;;;;;;;7.68;3.45;;;15.00;99.90;;;;;;5052963;28;20189;-86
2023/06/10 01:54:26;;;;;;;7.53;3.70;;;14.90;99.90;;;;;;5053880;28;20170;-86
2023/06/10 01:56:52;;;;;;;9.18;4.05;;;14.90;99.90;;;;;;5053424;28;20185;-86
2023/06/10 01:59:18;;;;;;;18.63;4.00;;;14.90;99.90;;;;;;5052670;28;20173;-86
2023/06/10 02:01:43;;;;;;;9.70;4.10;;;14.90;99.90;;;;;;5052548;28;20517;-85
2023/06/10 02:04:09;;;;;;;7.60;3.65;;;14.80;99.90;;;;;;5052431;28;20181;-86
2023/06/10 02:06:35;;;;;;;9.13;4.75;;;14.80;99.90;;;;;;5052772;28;20178;-86
2023/06/10 02:09:01;;;;;;;7.30;3.58;;;14.80;99.90;;;;;;5053271;28;20284;-85
2023/06/10 02:11:27;;;;;;;7.55;3.58;;;14.70;99.90;;;;;;5051982;28;20181;-85
2023/06/10 02:13:52;;;;;;;6.63;3.67;;;14.70;99.90;;;;;;5052503;28;20553;-86
2023/06/10 02:16:18;;;;;;;13.25;3.92;;;14.70;99.90;;;;;;5069114;28;20185;-85
2023/06/10 02:18:44;;;;;;;9.68;3.88;;;14.70;99.90;;;;;;5053353;28;20177;-85
2023/06/10 02:21:10;;;;;;;10.18;4.03;;;14.70;99.90;;;;;;5052408;28;20216;-85
2023/06/10 02:23:36;;;;;;;7.82;4.20;;;14.60;99.90;;;;;;5052287;28;20201;-86
2023/06/10 02:26:02;;;;;;;9.05;3.83;;;14.50;99.90;;;;;;5052012;28;20240;-86
2023/06/10 02:28:29;;;;;;;10.82;4.22;;;14.50;99.90;;;;;;5052216;28;20178;-86
2023/06/10 02:30:56;;;;;;;11.70;4.05;;;14.50;99.90;;;;;;5052304;28;20209;-87
2023/06/10 02:33:23;;;;;;;11.75;4.10;;;14.50;99.90;;;;;;5052339;28;20177;-86
2023/06/10 02:35:48;;;;;;;7.57;4.03;;;14.40;99.90;;;;;;5052398;28;20189;-87
2023/06/10 02:38:14;;;;;;;9.13;4.28;;;14.30;99.90;;;;;;5054527;28;20174;-87
2023/06/10 02:40:40;;;;;;;11.75;4.30;;;14.30;99.90;;;;;;5056381;28;20170;-87
2023/06/10 02:43:05;;;;;;;10.73;4.25;;;14.30;99.90;;;;;;5057144;28;20188;-86
2023/06/10 02:45:31;;;;;;;11.00;4.18;;;14.30;99.90;;;;;;5056589;28;20178;-86
2023/06/10 02:47:57;;;;;;;5.82;4.05;;;14.20;99.90;;;;;;5056335;28;20182;-86
2023/06/10 02:50:23;;;;;;;10.25;4.10;;;14.10;99.90;;;;;;5056325;28;20201;-86
2023/06/10 02:52:49;;;;;;;10.88;4.18;;;14.10;99.90;;;;;;5056024;28;20185;-86
2023/06/10 02:55:15;;;;;;;9.77;4.25;;;14.20;99.90;;;;;;5057547;28;20249;-87
2023/06/10 02:57:41;;;;;;;9.65;4.22;;;14.20;99.90;;;;;;5057185;28;20213;-86
2023/06/10 03:00:10;;;;;;;7.38;3.85;;;14.20;99.90;;;;;;5056113;28;20189;-86
2023/06/10 03:02:38;;;;;;;9.15;4.18;;;14.10;99.90;;;;;;5055910;28;20237;-86
2023/06/10 03:05:05;;;;;;;8.95;4.30;;;14.10;99.90;;;;;;5057239;28;20170;-86
2023/06/10 03:07:32;;;;;;;11.75;4.55;;;14.10;99.90;;;;;;5055648;28;20178;-85
2023/06/10 03:09:57;;;;;;;9.25;4.43;;;14.10;99.90;;;;;;5056878;28;20202;-85
2023/06/10 03:12:23;;;;;;;8.80;4.22;;;14.10;99.90;;;;;;5056846;28;20162;-85
2023/06/10 03:14:49;;;;;;;9.25;4.30;;;14.10;99.90;;;;;;5056988;28;20248;-85
2023/06/10 03:17:15;;;;;;;11.65;4.72;;;14.10;99.90;;;;;;5055761;28;20177;-85
2023/06/10 03:19:40;;;;;;;12.93;4.40;;;14.10;99.90;;;;;;5050653;28;20183;-85
2023/06/10 03:22:11;;;;;;;8.73;4.65;;;14.20;99.90;;;;;;5051448;28;20609;-85
2023/06/10 03:24:39;;;;;;;10.80;4.50;;;14.20;99.90;;;;;;5055367;28;20277;-86
2023/06/10 03:27:09;;;;;;;8.75;4.57;;;14.10;99.90;;;;;;5050647;28;20287;-86
2023/06/10 03:29:35;;;;;;;8.00;4.10;;;14.10;99.90;;;;;;5052034;28;20210;-86
2023/06/10 03:32:01;;;;;;;8.80;4.30;;;14.10;99.90;;;;;;5065258;28;20273;-86
2023/06/10 03:34:27;;;;;;;9.13;4.28;;;14.00;99.90;;;;;;5055348;28;20270;-85
2023/06/10 03:36:53;;;;;;;9.00;4.68;;;14.10;99.90;;;;;;5056463;28;20600;-85
2023/06/10 03:39:19;;;;;;;9.35;4.55;;;14.00;99.90;;;;;;5055335;28;20182;-86
2023/06/10 03:41:45;;;;;;;9.27;4.80;;;14.00;99.90;;;;;;5055121;28;20188;-86
2023/06/10 03:44:11;;;;;;;10.32;5.50;;;14.00;99.90;;;;;;5055243;28;20507;-86
2023/06/10 03:46:36;;;;;;;9.82;5.32;;;13.90;99.90;;;;;;5056534;28;20170;-85
2023/06/10 03:49:03;;;;;;;10.57;4.97;;;13.90;99.90;;;;;;5054962;28;20209;-86
2023/06/10 03:51:29;;;;;;;14.88;5.63;;;14.00;99.90;;;;;;5055484;28;20315;-86
2023/06/10 03:53:54;;;;;;;8.43;5.00;;;13.90;99.90;;;;;;5054994;28;20174;-86
2023/06/10 03:56:20;;;;;;;11.82;4.70;;;13.90;99.90;;;;;;5055243;28;20189;-86
2023/06/10 03:58:46;;;;;;;11.43;5.30;;;14.00;99.90;;;;;;5055941;28;20245;-86
2023/06/10 04:01:13;;;;;;;11.82;5.32;;;13.90;99.90;;;;;;5054924;28;20693;-86
2023/06/10 04:03:39;;;;;;;9.45;5.28;;;13.70;99.90;;;;;;5055906;28;20220;-86
2023/06/10 04:06:05;;;;;;;12.02;5.47;;;13.80;99.90;;;;;;5055915;28;20687;-86
2023/06/10 04:08:32;;;;;;;11.38;5.38;;;13.80;99.90;;;;;;5054738;28;20261;-85
2023/06/10 04:10:58;;;;;;;7.53;4.68;;;13.90;99.90;;;;;;5055985;28;20300;-86
2023/06/10 04:13:24;;;;;;;9.15;5.10;;;14.00;99.90;;;;;;5054386;28;20188;-86
2023/06/10 04:15:50;;;;;;;10.07;5.38;;;14.00;99.90;;;;;;5054774;28;20178;-86
2023/06/10 04:18:16;;;;;;;13.63;5.75;;;14.00;99.90;;;;;;5054494;28;20248;-86
2023/06/10 04:20:42;;;;;;;11.65;5.75;;;14.00;99.90;;;;;;5054092;28;20193;-86
2023/06/10 04:23:08;;;;;;;13.13;5.55;;;14.00;99.90;;;;;;5054568;28;20186;-86
2023/06/10 04:25:34;;;;;;;14.20;5.75;;;14.00;99.90;;;;;;5054480;28;20204;-86
2023/06/10 04:28:00;;;;;;;10.15;5.53;;;14.00;99.90;;;;;;5071026;28;20276;-87
2023/06/10 04:30:26;;;;;;;9.98;5.50;;;14.00;99.90;;;;;;5054327;28;20292;-87
2023/06/10 04:32:52;;;;;;;10.27;5.32;;;14.00;99.90;;;;;;5054343;28;20575;-86
2023/06/10 04:35:17;;;;;;;12.65;5.13;;;14.10;99.90;;;;;;5055554;28;20182;-86
2023/06/10 04:37:43;;;;;;;14.55;6.05;;;14.20;99.90;;;;;;5054242;28;20178;-86
2023/06/10 04:40:09;;;;;;;11.35;5.22;;;14.20;99.90;;;;;;5055401;28;20185;-85
2023/06/10 04:42:35;;;;;;;12.05;5.85;;;14.30;99.90;;;;;;5053729;28;20624;-86
2023/06/10 04:45:02;;;;;;;9.50;5.18;;;14.30;99.90;;;;;;5054203;28;20270;-86
2023/06/10 04:47:28;;;;;;;10.02;4.93;;;14.50;99.90;;;;;;5054134;28;20181;-86
2023/06/10 04:49:54;;;;;;;12.90;5.20;;;14.60;99.90;;;;;;5055145;28;20202;-86
2023/06/10 04:52:19;;;;;;;8.25;4.68;;;14.70;99.90;;;;;;5055317;28;20198;-86
2023/06/10 04:54:45;;;;;;;10.75;4.50;;;14.90;99.90;;;;;;5053892;28;20232;-85
2023/06/10 04:57:11;;;;;;;11.20;4.78;;;15.00;99.90;;;;;;5053614;28;20182;-86
2023/06/10 04:59:38;;;;;;;10.68;4.65;;;15.00;99.90;;;;;;5053846;28;20628;-87
2023/06/10 05:02:07;;;;;;;7.85;4.60;;;15.00;99.90;;;;;;5069086;28;20216;-86
2023/06/10 05:04:32;;;;;;;8.68;4.35;;;15.10;99.90;;;;;;5053396;28;20240;-86
2023/06/10 05:06:58;;;;;;;9.50;4.85;;;15.10;99.90;;;;;;5055051;28;20170;-86
2023/06/10 05:09:25;;;;;;;8.07;4.20;;;15.20;99.90;;;;;;5053460;28;20206;-86
2023/06/10 05:11:53;;;;;;;9.95;4.28;;;15.30;99.90;;;;;;5054498;28;20162;-85
2023/06/10 05:14:20;;;;;;;13.18;4.50;;;15.30;99.90;;;;;;5053418;28;20270;-84
2023/06/10 05:16:47;;;;;;;12.75;4.60;;;15.30;99.90;;;;;;5053349;28;20182;-85
2023/06/10 05:19:12;;;;;;;12.25;4.70;;;15.30;99.90;;;;;;5053392;28;20269;-86
2023/06/10 05:21:39;;;;;;;10.18;4.00;;;15.30;99.90;;;;;;5054503;28;20200;-86
2023/06/10 05:24:06;;;;;;;9.45;4.80;;;15.40;99.90;;;;;;5053233;28;20261;-85
2023/06/10 05:26:32;;;;;;;12.02;4.57;;;15.40;99.90;;;;;;5053059;28;20229;-86
2023/06/10 05:28:58;;;;;;;9.75;4.82;;;15.30;99.90;;;;;;5069228;28;20196;-86
2023/06/10 05:31:24;;;;;;;12.77;4.38;;;15.20;99.90;;;;;;5045847;28;20194;-86
2023/06/10 05:33:50;;;;;;;12.43;4.63;;;15.30;99.90;;;;;;5049855;28;20197;-85
2023/06/10 05:36:15;;;;;;;7.95;4.90;;;15.30;99.90;;;;;;5034455;28;20179;-86
2023/06/10 05:38:41;;;;;;;12.63;4.85;;;15.30;99.90;;;;;;5033352;28;20700;-86
2023/06/10 05:41:08;;;;;;;10.95;4.70;;;15.30;99.90;;;;;;5033215;28;20182;-86
2023/06/10 05:43:33;;;;;;;12.23;5.75;;;15.40;99.90;;;;;;5049228;28;20522;-86
2023/06/10 05:45:59;;;;;;;12.05;4.88;;;15.40;99.90;;;;;;5032895;28;20175;-87
2023/06/10 05:48:25;;;;;;;8.80;4.30;;;15.40;99.90;;;;;;5049628;28;20185;-86
2023/06/10 05:50:51;;;;;;;8.88;4.63;;;15.50;99.90;;;;;;5032885;28;20214;-86
2023/06/10 05:53:17;;;;;;;12.93;4.85;;;15.40;99.90;;;;;;5034345;28;20163;-86
2023/06/10 05:55:44;;;;;;;8.25;4.28;;;15.50;99.90;;;;;;5032897;28;20513;-85
2023/06/10 05:58:12;;;;;;;11.63;4.28;;;15.50;99.90;;;;;;5033877;28;20171;-86
2023/06/10 06:00:41;;;;;;;8.07;4.53;;;15.60;99.90;;;;;;5034311;28;20179;-86
2023/06/10 06:03:10;;;;;;;11.43;4.30;;;15.60;99.90;;;;;;5052544;28;20179;-87
2023/06/10 06:05:38;;;;;;;7.82;4.03;;;15.70;99.90;;;;;;5052757;28;20232;-87
2023/06/10 06:08:07;;;;;;;11.48;4.95;;;15.70;99.90;;;;;;5052646;28;20616;-86
2023/06/10 06:10:33;;;;;;;9.73;4.72;;;15.80;99.90;;;;;;5052407;28;20559;-86
2023/06/10 06:13:00;;;;;;;13.35;5.40;;;16.00;99.90;;;;;;5051676;28;20174;-85
2023/06/10 06:15:26;;;;;;;9.35;4.57;;;16.10;99.90;;;;;;5052570;28;20681;-86
2023/06/10 06:17:52;;;;;;;10.23;4.93;;;16.10;99.90;;;;;;5052661;28;20272;-86
2023/06/10 06:20:23;;;;;;;10.02;4.55;;;16.20;99.90;;;;;;5052446;28;20609;-87
2023/06/10 06:22:48;;;;;;;9.52;4.35;;;16.30;99.90;;;;;;5052541;28;20181;-86
2023/06/10 06:25:15;;;;;;;11.40;4.28;;;16.30;99.90;;;;;;5053572;28;20181;-84
2023/06/10 06:27:41;;;;;;;9.98;4.00;;;16.50;99.90;;;;;;5053151;28;20244;-86
2023/06/10 06:30:07;;;;;;;11.75;3.90;;;16.50;99.90;;;;;;5053481;28;20210;-86
2023/06/10 06:32:33;;;;;;;10.60;4.15;;;16.60;99.90;;;;;;5052213;28;20243;-85
2023/06/10 06:34:59;;;;;;;11.38;3.55;;;16.70;99.90;;;;;;5052389;28;20182;-86
2023/06/10 06:37:25;;;;;;;7.88;3.85;;;16.70;99.90;;;;;;5052314;28;20743;-86
2023/06/10 06:39:52;;;;;;;10.70;4.32;;;16.70;99.90;;;;;;5052242;28;20208;-85
2023/06/10 06:42:18;;;;;;;9.10;4.25;;;16.80;99.90;;;;;;5051760;28;20247;-85
2023/06/10 06:44:44;;;;;;;9.82;3.90;;;16.90;99.90;;;;;;5052215;28;20228;-85
2023/06/10 06:47:10;;;;;;;12.40;4.57;;;17.00;99.90;;;;;;5052346;28;20178;-86
2023/06/10 06:49:35;;;;;;;10.05;4.20;;;17.00;99.90;;;;;;5053378;28;20236;-86
2023/06/10 06:52:02;;;;;;;9.13;4.57;;;17.20;99.90;;;;;;5053427;28;20260;-86
2023/06/10 06:54:28;;;;;;;12.57;4.70;;;17.30;99.90;;;;;;5053324;28;20216;-85
2023/06/10 06:56:53;;;;;;;9.73;4.18;;;17.40;99.90;;;;;;5053061;28;20170;-85
2023/06/10 06:59:19;;;;;;;12.02;3.88;;;17.50;99.90;;;;;;5051880;28;20176;-85
2023/06/10 07:01:46;;;;;;;9.65;4.22;;;17.70;99.90;;;;;;5053178;28;20178;-85
2023/06/10 07:04:14;;;;;;;9.93;4.20;;;17.90;99.90;;;;;;5052161;28;20638;-87
2023/06/10 07:06:40;;;;;;;10.20;3.65;;;18.00;99.90;;;;;;5053424;28;20174;-86
2023/06/10 07:09:07;;;;;;;12.35;3.83;;;18.30;99.90;;;;;;5053062;28;20197;-86
2023/06/10 07:11:33;;;;;;;9.40;3.75;;;18.50;99.90;;;;;;5051824;28;20186;-86
2023/06/10 07:13:58;;;;;;;9.95;4.18;;;18.70;99.90;;;;;;5052985;28;20666;-87
2023/06/10 07:16:24;;;;;;;6.95;3.75;;;18.70;99.90;;;;;;5051955;28;20181;-87
2023/06/10 07:18:50;;;;;;;8.98;4.10;;;18.80;99.90;;;;;;5052947;28;20594;-85
2023/06/10 07:21:16;;;;;;;9.77;4.03;;;18.80;99.90;;;;;;5053189;28;20632;-86
2023/06/10 07:23:42;;;;;;;12.00;3.78;;;18.80;99.90;;;;;;5051732;28;20230;-86
2023/06/10 07:26:10;;;;;;;7.60;3.83;;;18.70;99.90;;;;;;5053798;28;20230;-85
2023/06/10 07:28:37;;;;;;;10.07;3.70;;;18.90;99.90;;;;;;5055361;28;20193;-86
2023/06/10 07:31:03;;;;;;;10.43;4.18;;;19.10;99.90;;;;;;5056608;28;20340;-87
2023/06/10 07:33:29;;;;;;;11.32;4.20;;;19.20;99.90;;;;;;5055525;28;20173;-87
2023/06/10 07:35:55;;;;;;;8.75;3.83;;;19.20;99.90;;;;;;5056723;28;20612;-86
2023/06/10 07:38:21;;;;;;;9.20;3.90;;;19.40;99.90;;;;;;5056495;28;20173;-86
2023/06/10 07:40:47;;;;;;;9.00;3.55;;;19.60;99.90;;;;;;5056422;28;20166;-87
2023/06/10 07:43:12;;;;;;;8.15;3.83;;;19.70;99.90;;;;;;5055016;28;20170;-87
2023/06/10 07:45:40;;;;;;;10.52;4.22;;;19.80;99.90;;;;;;5055562;28;20548;-86
2023/06/10 07:48:07;;;;;;;8.38;4.00;;;19.90;99.90;;;;;;5055419;28;20189;-87
2023/06/10 07:50:33;;;;;;;10.32;4.05;;;20.10;99.90;;;;;;5055178;28;20233;-86
2023/06/10 07:52:59;;;;;;;10.48;4.10;;;20.10;99.90;;;;;;5054896;28;20186;-87
2023/06/10 07:55:25;;;;;;;8.73;3.70;;;20.20;99.90;;;;;;5055292;28;20178;-87
2023/06/10 07:57:52;;;;;;;10.32;4.05;;;20.00;99.90;;;;;;5056318;28;20181;-87
2023/06/10 08:00:18;;;;;;;9.27;3.85;;;19.90;99.90;;;;;;5055155;28;20178;-87
2023/06/10 08:02:44;;;;;;;9.50;3.63;;;20.00;99.90;;;;;;5055039;28;20529;-88
2023/06/10 08:05:10;;;;;;;10.90;4.35;;;20.20;99.90;;;;;;5056416;28;20166;-88
2023/06/10 08:07:36;;;;;;;7.35;3.60;;;20.20;99.90;;;;;;5054958;28;20201;-87
2023/06/10 08:10:02;;;;;;;11.25;3.72;;;20.40;99.90;;;;;;5056249;28;20209;-89
2023/06/10 08:12:29;;;;;;;8.93;4.32;;;20.40;99.90;;;;;;5055886;28;20174;-88
2023/06/10 08:14:55;;;;;;;8.32;4.07;;;20.60;99.90;;;;;;5054905;28;20185;-88
2023/06/10 08:17:21;;;;;;;6.22;3.95;;;20.70;99.90;;;;;;5055006;28;20178;-86
2023/06/10 08:19:47;;;;;;;8.70;4.38;;;20.70;99.90;;;;;;5055670;28;20174;-88
2023/06/10 08:22:12;;;;;;;8.80;3.70;;;20.80;99.90;;;;;;5054587;28;20177;-86
2023/06/10 08:24:38;;;;;;;11.90;3.97;;;21.00;99.90;;;;;;5056236;28;20166;-88
2023/06/10 08:27:05;;;;;;;7.65;3.53;;;20.70;99.90;;;;;;5054639;28;20233;-88
2023/06/10 08:29:31;;;;;;;6.50;3.70;;;20.90;99.90;;;;;;5054326;28;20206;-88
2023/06/10 08:31:58;;;;;;;8.35;4.13;;;21.00;99.90;;;;;;5055640;28;20186;-89
2023/06/10 08:34:24;;;;;;;10.32;4.35;;;21.20;99.90;;;;;;5054713;28;20172;-87
2023/06/10 08:36:53;;;;;;;8.38;3.58;;;21.40;99.90;;;;;;5055678;28;20257;-88
2023/06/10 08:39:19;;;;;;;10.88;4.07;;;21.60;99.90;;;;;;5054814;28;20182;-87
2023/06/10 08:42:12;;;;;;;7.95;4.18;;;21.50;99.90;;;;;;5054832;28;20174;-87
2023/06/10 08:44:39;;;;;;;9.13;4.07;;;21.60;99.90;;;;;;5053545;28;20197;-88
2023/06/10 08:47:14;;;;;;;7.30;3.65;;;21.60;99.90;;;;;;5053986;28;20178;-88
2023/06/10 08:49:45;;;;;;;10.07;4.20;;;21.80;99.90;;;;;;5070900;28;20213;-88
2023/06/10 08:52:18;;;;;;;10.77;3.70;;;21.90;99.90;;;;;;5054190;28;20597;-88
2023/06/10 08:54:54;;;;;;;12.90;4.32;;;21.90;99.90;;;;;;5054514;28;20174;-88
2023/06/10 08:57:21;;;;;;;7.70;3.30;;;22.00;99.90;;;;;;5055448;28;20211;-89
2023/06/10 08:59:48;;;;;;;9.80;4.22;;;22.10;99.90;;;;;;5053906;28;20182;-88
2023/06/10 09:02:15;;;;;;;8.45;3.25;;;22.30;99.90;;;;;;5054055;28;20208;-87
2023/06/10 09:04:43;;;;;;;7.72;4.00;;;22.50;99.90;;;;;;5055158;28;20169;-89
2023/06/10 09:07:11;;;;;;;8.25;4.30;;;22.60;99.90;;;;;;5054165;28;20189;-88
2023/06/10 09:09:37;;;;;;;8.00;3.97;;;22.60;99.90;;;;;;5053664;28;20205;-88
2023/06/10 09:12:04;;;;;;;6.88;4.03;;;22.80;99.90;;;;;;5053753;28;20208;-88
2023/06/10 09:14:29;;;;;;;14.45;4.07;;;22.90;99.90;;;;;;5053606;28;20197;-89
2023/06/10 09:16:58;;;;;;;7.97;4.03;;;23.00;99.90;;;;;;5053962;28;20263;-88
2023/06/10 09:19:26;;;;;;;8.98;3.92;;;23.10;99.90;;;;;;5053872;28;20201;-88
2023/06/10 09:21:53;;;;;;;7.68;4.10;;;23.40;99.90;;;;;;5053666;28;20519;-88
2023/06/10 09:24:21;;;;;;;9.00;3.70;;;23.60;99.90;;;;;;5053486;28;20178;-87
2023/06/10 09:26:47;;;;;;;8.57;4.05;;;23.60;99.20;;;;;;5053379;28;20222;-89
2023/06/10 09:29:13;;;;;;;8.38;4.00;;;23.60;99.10;;;;;;5054352;28;20259;-88
2023/06/10 09:31:40;;;;;;;8.77;3.97;;;23.70;99.90;;;;;;5053225;28;20185;-88
2023/06/10 09:34:07;;;;;;;7.57;4.13;;;23.70;99.10;;;;;;5053584;28;20505;-89
2023/06/10 09:36:35;;;;;;;10.00;4.10;;;23.80;99.00;;;;;;5053654;28;20186;-87
2023/06/10 09:39:01;;;;;;;9.48;4.50;;;23.80;99.00;;;;;;5054657;28;20211;-88
2023/06/10 09:41:37;;;;;;;11.10;4.35;;;23.90;99.10;;;;;;5054451;28;20235;-88
2023/06/10 09:44:18;;;;;;;8.10;4.50;;;23.80;98.50;;;;;;5053138;28;20212;-88
2023/06/10 09:46:49;;;;;;;6.78;4.00;;;23.90;98.90;;;;;;5053609;28;20169;-88
2023/06/10 09:49:16;;;;;;;9.95;3.92;;;24.10;99.30;;;;;;5052013;28;20204;-87
2023/06/10 09:51:54;;;;;;;10.15;4.40;;;24.30;98.90;;;;;;5052943;28;20627;-89
2023/06/10 09:54:21;;;;;;;8.23;4.10;;;24.30;98.30;;;;;;5053289;28;20178;-90
2023/06/10 09:56:48;;;;;;;7.97;3.95;;;24.40;99.20;;;;;;5053566;28;20209;-89
2023/06/10 09:59:15;;;;;;;8.73;4.00;;;24.60;97.90;;;;;;5053201;28;20659;-91
2023/06/10 10:01:42;;;;;;;10.07;3.80;;;24.50;98.10;;;;;;5053543;28;20265;-90
2023/06/10 10:04:07;;;;;;;7.65;4.57;;;24.50;97.70;;;;;;5053559;28;20177;-90
2023/06/10 10:06:35;;;;;;;7.25;4.40;;;24.40;97.70;;;;;;5053439;28;20178;-90
2023/06/10 10:09:01;;;;;;;7.03;4.47;;;24.40;97.30;;;;;;5053268;28;20558;-90
2023/06/10 10:11:27;;;;;;;8.65;4.38;;;24.60;98.00;;;;;;5054427;28;20231;-90
2023/06/10 10:13:54;;;;;;;7.50;4.32;;;24.70;96.90;;;;;;5054601;28;20506;-88
2023/06/10 10:16:29;;;;;;;6.80;3.90;;;24.30;96.80;;;;;;5053630;28;20184;-92
2023/06/10 10:18:59;;;;;;;7.57;4.32;;;24.50;97.90;;;;;;5052501;28;20518;-87
2023/06/10 10:21:29;;;;;;;7.68;3.80;;;24.70;97.50;;;;;;5053177;28;20185;-91
2023/06/10 10:24:20;;;;;;;7.80;3.83;;;24.90;98.50;;;;;;5053562;28;20166;-90
2023/06/10 10:26:48;;;;;;;6.03;3.90;;;25.10;97.90;;;;;;5053289;28;20679;-91
2023/06/10 10:29:21;;;;;;;6.32;3.65;;;25.20;96.30;;;;;;5052956;28;20312;-91
2023/06/10 10:31:50;;;;;;;7.40;4.13;;;25.10;96.50;;;;;;5053610;28;20189;-90
2023/06/10 10:34:23;;;;;;;8.30;4.38;;;24.90;96.40;;;;;;5053487;28;20204;-90
2023/06/10 10:36:50;;;;;;;6.97;4.35;;;24.90;96.60;;;;;;5054630;28;20158;-89
2023/06/10 10:39:17;;;;;;;8.18;4.60;;;25.20;97.10;;;;;;5053127;28;20216;-91
2023/06/10 10:41:43;;;;;;;9.05;4.13;;;25.30;96.50;;;;;;5052980;28;20184;-90
2023/06/10 10:44:10;;;;;;;6.88;4.30;;;25.40;96.50;;;;;;5052530;28;20277;-90
2023/06/10 10:46:50;;;;;;;7.00;4.53;;;25.60;96.60;;;;;;5052789;28;20571;-87
2023/06/10 10:49:17;;;;;;;9.35;3.83;;;25.80;96.00;;;;;;5052892;28;20279;-91
2023/06/10 10:51:57;;;;;;;8.02;4.10;;;26.00;96.20;;;;;;5052640;28;20174;-88
2023/06/10 10:54:53;;;;;;;9.13;4.40;;;26.30;95.60;;;;;;5052426;28;20173;-89
2023/06/10 10:57:20;;;;;;;9.27;4.20;;;26.50;94.30;;;;;;5036045;28;20186;-89
2023/06/10 10:59:57;;;;;;;8.02;4.80;;;26.50;94.70;;;;;;5052773;28;20174;-89
2023/06/10 11:02:40;;;;;;;7.55;4.20;;;26.30;94.70;;;;;;5058023;28;20165;-89
2023/06/10 11:05:07;;;;;;;10.82;4.70;;;26.40;94.70;;;;;;5056459;28;20185;-83
2023/06/10 11:07:34;;;;;;;8.85;4.47;;;26.40;94.20;;;;;;5056955;28;20196;-89
2023/06/10 11:10:03;;;;;;;10.20;4.38;;;26.70;94.50;;;;;;5056932;28;20209;-89
2023/06/10 11:12:45;;;;;;;6.35;4.15;;;26.80;94.20;;;;;;5057940;28;20178;-88
2023/06/10 11:15:11;;;;;;;7.90;4.43;;;26.80;94.60;;;;;;5057866;28;20158;-90
2023/06/10 11:17:37;;;;;;;6.53;4.18;;;26.90;94.10;;;;;;5057658;28;20172;-87
2023/06/10 11:20:03;;;;;;;7.60;4.63;;;26.90;93.80;;;;;;5056116;28;20280;-86
2023/06/10 11:22:28;;;;;;;7.60;4.63;;;26.80;94.40;;;;;;5056308;28;20196;-88
2023/06/10 11:24:55;;;;;;;8.32;4.70;;;26.90;94.00;;;;;;5055678;28;20178;-85
2023/06/10 11:27:24;;;;;;;8.52;4.32;;;27.00;93.90;;;;;;5057021;28;20245;-87
2023/06/10 11:30:20;;;;;;;7.15;4.57;;;27.10;93.70;;;;;;5055006;28;20216;-84
2023/06/10 11:32:51;;;;;;;5.90;4.22;;;27.20;92.20;;;;;;5039465;28;20182;-84
2023/06/10 11:35:19;;;;;;;10.57;4.70;;;27.10;92.70;;;;;;5056146;28;20174;-88
2023/06/10 11:37:46;;;;;;;8.80;4.82;;;27.00;92.30;;;;;;5057302;28;20170;-85
2023/06/10 11:40:12;;;;;;;8.95;5.30;;;27.20;93.30;;;;;;5055596;28;20634;-84
2023/06/10 11:42:42;;;;;;;7.45;5.05;;;27.20;92.90;;;;;;5057033;28;20531;-87
2023/06/10 11:45:08;;;;;;;7.90;4.57;;;27.00;92.30;;;;;;5055426;28;20174;-84
2023/06/10 11:47:34;;;;;;;10.00;4.65;;;27.20;93.90;;;;;;5055787;28;20174;-86
2023/06/10 11:50:00;;;;;;;10.93;5.03;;;27.30;93.00;;;;;;5055670;28;20203;-86
2023/06/10 11:52:32;;;;;;;7.15;4.60;;;27.50;92.10;;;;;;5055572;28;20182;-87
2023/06/10 11:54:57;;;;;;;7.25;4.78;;;27.50;93.00;;;;;;5056837;28;20166;-87
2023/06/10 11:57:23;;;;;;;6.97;4.78;;;27.60;92.30;;;;;;5055829;28;20174;-87
2023/06/10 11:59:49;;;;;;;10.68;5.20;;;27.70;92.60;;;;;;5055400;28;20250;-88
2023/06/10 12:02:16;;;;;;;7.25;4.50;;;27.90;92.50;;;;;;5055435;28;20177;-88
2023/06/10 12:04:43;;;;;;;8.70;4.55;;;27.90;92.10;;;;;;5055621;28;20517;-87
2023/06/10 12:07:08;;;;;;;4.72;4.10;;;27.80;92.60;;;;;;5055241;28;20214;-83
2023/06/10 12:09:34;;;;;;;9.43;5.38;;;27.90;92.00;;;;;;5055108;28;20244;-86
2023/06/10 12:12:05;;;;;;;6.18;4.50;;;28.00;92.10;;;;;;5054614;28;20543;-90
2023/06/10 12:14:55;;;;;;;7.32;5.22;;;28.20;91.90;;;;;;5054955;28;20189;-87
2023/06/10 12:17:22;;;;;;;6.93;5.00;;;28.20;91.50;;;;;;5055573;28;20170;-88
2023/06/10 12:19:49;;;;;;;9.20;4.72;;;28.10;91.30;;;;;;5071761;28;20185;-86
2023/06/10 12:22:15;;;;;;;5.55;4.60;;;28.00;91.40;;;;;;5056265;28;20178;-86
2023/06/10 12:25:09;;;;;;;9.75;5.03;;;28.00;91.90;;;;;;5056221;28;20202;-87
2023/06/10 12:27:36;;;;;;;6.75;4.72;;;28.00;91.70;;;;;;5053480;28;20225;-84
2023/06/10 12:30:04;;;;;;;5.47;4.57;;;28.20;92.10;;;;;;5055582;28;20201;-87
2023/06/10 12:32:41;;;;;;;6.88;4.35;;;28.40;92.20;;;;;;5053969;28;20209;-89
2023/06/10 12:35:08;;;;;;;8.43;4.90;;;28.70;91.30;;;;;;5055003;28;20184;-89
2023/06/10 12:37:35;;;;;;;6.90;4.57;;;28.60;90.60;;;;;;5054823;28;20178;-89
2023/06/10 12:40:06;;;;;;;9.52;5.30;;;28.60;92.40;;;;;;5054741;28;20180;-88
2023/06/10 12:42:34;;;;;;;9.60;4.70;;;28.60;90.70;;;;;;5055635;28;20188;-88
2023/06/10 12:45:01;;;;;;;7.80;5.05;;;28.40;91.40;;;;;;5054416;28;20309;-86
2023/06/10 12:47:44;;;;;;;12.93;5.28;;;28.20;90.70;;;;;;5054177;28;20185;-87